| time (UTC) | temp F | wind direction | speed knots | gust knots | rain 1hr in | rain 24hr in | rain mn in | humidity % | barometer mb |
| 20260510203438 | 62 | 336 | 0.0 | 0.0 | 0.00 | 0.24 | 0.24 | 95 | 1011.0 |
| 20260510202938 | 61 | 309 | 0.0 | 0.0 | 0.00 | 0.24 | 0.24 | 95 | 1011.2 |
| 20260510202434 | 62 | 177 | 0.0 | 0.0 | 0.00 | 0.24 | 0.24 | 97 | 1011.0 |
| 20260510201931 | 60 | 351 | 0.0 | 0.0 | 0.00 | 0.24 | 0.24 | 99 | 1011.2 |
| 20260510201428 | 60 | 348 | 0.0 | 0.0 | 0.00 | 0.24 | 0.24 | 99 | 1010.9 |
| 20260510200924 | 60 | 354 | 0.0 | 0.0 | 0.00 | 0.24 | 0.24 | 99 | 1011.1 |
| 20260510200425 | 60 | 20 | 0.0 | 0.0 | 0.00 | 0.24 | 0.24 | 99 | 1011.2 |
| 20260510195918 | 59 | 337 | 0.0 | 0.0 | 0.07 | 0.24 | 0.24 | 99 | 1011.2 |
| 20260510195415 | 59 | 327 | 0.0 | 0.0 | 0.19 | 0.24 | 0.24 | 99 | 1011.4 |
| 20260510194910 | 59 | 349 | 0.0 | 0.0 | 0.66 | 0.23 | 0.23 | 99 | 1011.1 |
| 20260510194407 | 60 | 345 | 0.0 | 0.9 | 0.59 | 0.21 | 0.21 | 99 | 1011.3 |
| 20260510193903 | 60 | 37 | 0.0 | 0.0 | 0.05 | 0.12 | 0.12 | 98 | 1011.7 |
| 20260510193357 | 59 | 344 | 0.0 | 0.0 | 0.00 | 0.11 | 0.11 | 97 | 1011.1 |
| 20260510192853 | 59 | 345 | 0.0 | 0.0 | 0.00 | 0.11 | 0.11 | 96 | 1011.2 |
| 20260510192349 | 59 | 329 | 0.0 | 0.0 | 0.07 | 0.11 | 0.11 | 95 | 1011.0 |
| 20260510191845 | 59 | 301 | 0.0 | 0.0 | 0.14 | 0.11 | 0.11 | 95 | 1011.1 |
| 20260510191341 | 60 | 262 | 0.0 | 0.0 | 0.31 | 0.10 | 0.10 | 93 | 1011.3 |
| 20260510190839 | 60 | 259 | 0.0 | 0.0 | 0.35 | 0.09 | 0.09 | 93 | 1011.5 |
| 20260510190336 | 61 | 283 | 0.0 | 0.9 | 0.28 | 0.05 | 0.05 | 92 | 1011.3 |
| 20260510185831 | 63 | 249 | 0.0 | 0.9 | 0.17 | 0.03 | 0.03 | 88 | 1011.3 |
| 20260510185330 | 66 | 225 | 1.7 | 1.7 | 0.00 | 0.00 | 0.00 | 82 | 1011.1 |
| 20260510184822 | 67 | 272 | 0.0 | 0.0 | 0.00 | 0.00 | 0.00 | 78 | 1011.3 |
| 20260510184319 | 67 | 347 | 0.0 | 0.0 | 0.00 | 0.00 | 0.00 | 75 | 1010.9 |
| 20260510183819 | 68 | 342 | 0.0 | 0.9 | 0.00 | 0.00 | 0.00 | 74 | 1010.8 |
| 20260510183314 | 68 | 325 | 0.0 | 0.0 | 0.00 | 0.00 | 0.00 | 69 | 1010.8 |
| 20260510182810 | 68 | 350 | 0.0 | 0.0 | 0.00 | 0.00 | 0.00 | 70 | 1010.7 |
| 20260510182307 | 69 | 352 | 0.9 | 0.9 | 0.00 | 0.00 | 0.00 | 69 | 1010.6 |
| 20260510181803 | 69 | 337 | 0.9 | 1.7 | 0.00 | 0.00 | 0.00 | 69 | 1010.8 |
| 20260510181300 | 69 | 24 | 0.0 | 0.9 | 0.00 | 0.00 | 0.00 | 69 | 1010.9 |
| 20260510180756 | 69 | 342 | 0.9 | 0.9 | 0.00 | 0.00 | 0.00 | 69 | 1010.9 |
| 20260510180254 | 69 | 288 | 0.0 | 0.0 | 0.00 | 0.00 | 0.00 | 69 | 1010.8 |
| 20260510175750 | 69 | 78 | 0.9 | 0.9 | 0.00 | 0.00 | 0.00 | 71 | 1010.9 |
| 20260510175246 | 70 | 16 | 0.0 | 0.9 | 0.00 | 0.00 | 0.00 | 68 | 1010.7 |
| 20260510174743 | 70 | 349 | 0.9 | 1.7 | 0.00 | 0.00 | 0.00 | 69 | 1010.9 |
| 20260510174240 | 70 | 203 | 0.9 | 0.9 | 0.00 | 0.00 | 0.00 | 68 | 1010.7 |
| 20260510173736 | 69 | 4 | 0.9 | 0.9 | 0.00 | 0.00 | 0.00 | 72 | 1010.5 |
| 20260510173232 | 69 | 343 | 0.9 | 0.9 | 0.00 | 0.00 | 0.00 | 71 | 1010.6 |
| 20260510172727 | 68 | 357 | 0.0 | 0.0 | 0.00 | 0.00 | 0.00 | 70 | 1010.8 |
| 20260510172218 | 68 | 248 | 0.0 | 0.9 | 0.00 | 0.00 | 0.00 | 69 | 1010.9 |
| 20260510171715 | 69 | 305 | 0.0 | 0.9 | 0.00 | 0.00 | 0.00 | 67 | 1010.9 |
| 20260510171213 | 70 | 250 | 2.6 | 5.2 | 0.00 | 0.00 | 0.00 | 68 | 1010.9 |
| 20260510170709 | 69 | 358 | 2.6 | 2.6 | 0.00 | 0.00 | 0.00 | 69 | 1010.9 |
| 20260510170206 | 68 | 321 | 0.0 | 0.9 | 0.00 | 0.00 | 0.00 | 70 | 1011.1 |
| 20260510165702 | 68 | 4 | 0.0 | 0.9 | 0.00 | 0.00 | 0.00 | 72 | 1011.1 |
| 20260510165158 | 68 | 340 | 0.0 | 0.0 | 0.00 | 0.00 | 0.00 | 70 | 1011.0 |
| 20260510164655 | 69 | 252 | 0.0 | 0.9 | 0.00 | 0.00 | 0.00 | 68 | 1011.0 |
| 20260510164152 | 68 | 210 | 0.9 | 1.7 | 0.00 | 0.00 | 0.00 | 69 | 1010.8 |
| 20260510163647 | 68 | 341 | 0.9 | 0.9 | 0.00 | 0.00 | 0.00 | 69 | 1011.0 |
| 20260510163143 | 68 | 40 | 0.9 | 0.9 | 0.00 | 0.00 | 0.00 | 72 | 1010.8 |
| 20260510162637 | 67 | 287 | 0.0 | 0.9 | 0.00 | 0.00 | 0.00 | 73 | 1011.0 |
| 20260510162134 | 68 | 346 | 0.9 | 1.7 | 0.00 | 0.00 | 0.00 | 72 | 1011.3 |
| 20260510161630 | 68 | 254 | 0.0 | 0.9 | 0.00 | 0.00 | 0.00 | 73 | 1011.1 |
| 20260510161127 | 67 | 3 | 0.9 | 0.9 | 0.00 | 0.00 | 0.00 | 72 | 1011.4 |
| 20260510160624 | 67 | 6 | 0.0 | 0.0 | 0.00 | 0.00 | 0.00 | 73 | 1011.3 |
| 20260510160124 | 68 | 353 | 0.0 | 0.9 | 0.00 | 0.00 | 0.00 | 72 | 1011.5 |
| 20260510155621 | 67 | 350 | 0.0 | 0.0 | 0.00 | 0.00 | 0.00 | 76 | 1011.5 |
| 20260510155117 | 67 | 192 | 1.7 | 1.7 | 0.00 | 0.00 | 0.00 | 73 | 1011.3 |
| 20260510154612 | 66 | 230 | 0.9 | 0.9 | 0.00 | 0.00 | 0.00 | 74 | 1011.4 |
| 20260510154108 | 67 | 328 | 0.0 | 0.9 | 0.00 | 0.00 | 0.00 | 76 | 1011.3 |
| 20260510153603 | 67 | 223 | 0.0 | 0.9 | 0.00 | 0.00 | 0.00 | 74 | 1011.2 |
| 20260510153100 | 67 | 355 | 0.0 | 0.9 | 0.00 | 0.00 | 0.00 | 74 | 1011.2 |
| 20260510152557 | 66 | 234 | 0.9 | 1.7 | 0.00 | 0.00 | 0.00 | 75 | 1011.1 |
| 20260510152053 | 66 | 285 | 0.0 | 0.9 | 0.00 | 0.00 | 0.00 | 77 | 1011.0 |
| 20260510151550 | 66 | 5 | 0.0 | 0.0 | 0.00 | 0.00 | 0.00 | 79 | 1011.1 |
| 20260510151048 | 66 | 329 | 0.0 | 0.0 | 0.00 | 0.00 | 0.00 | 78 | 1011.2 |
| 20260510150548 | 66 | 343 | 0.0 | 0.0 | 0.00 | 0.00 | 0.00 | 78 | 1011.2 |
| 20260510150044 | 65 | 10 | 0.0 | 0.0 | 0.00 | 0.00 | 0.00 | 77 | 1011.2 |
| 20260510145541 | 66 | 186 | 2.6 | 4.3 | 0.00 | 0.00 | 0.00 | 77 | 1011.1 |
| 20260510145037 | 66 | 359 | 0.0 | 0.0 | 0.00 | 0.00 | 0.00 | 79 | 1011.0 |
| 20260510144534 | 65 | 194 | 0.9 | 0.9 | 0.00 | 0.00 | 0.00 | 79 | 1011.1 |
| 20260510144030 | 64 | 269 | 0.9 | 0.9 | 0.00 | 0.00 | 0.00 | 80 | 1011.2 |
| 20260510143525 | 65 | 179 | 2.6 | 5.2 | 0.00 | 0.00 | 0.00 | 80 | 1011.1 |
| 20260510143022 | 66 | 217 | 1.7 | 1.7 | 0.00 | 0.00 | 0.00 | 80 | 1011.0 |
| 20260510142519 | 65 | 257 | 0.0 | 0.0 | 0.00 | 0.00 | 0.00 | 80 | 1011.0 |
| 20260510142015 | 64 | 339 | 0.0 | 0.0 | 0.00 | 0.00 | 0.00 | 82 | 1011.1 |
| 20260510141512 | 64 | 319 | 0.0 | 0.0 | 0.00 | 0.00 | 0.00 | 84 | 1011.1 |
| 20260510141010 | 63 | 334 | 0.0 | 0.0 | 0.00 | 0.00 | 0.00 | 84 | 1011.1 |
| 20260510140506 | 63 | 257 | 0.0 | 0.0 | 0.00 | 0.00 | 0.00 | 85 | 1011.1 |
| 20260510140000 | 63 | 137 | 0.0 | 0.0 | 0.00 | 0.00 | 0.00 | 84 | 1011.1 |
| 20260510135455 | 62 | 288 | 0.0 | 0.0 | 0.00 | 0.00 | 0.00 | 86 | 1011.3 |
| 20260510134953 | 61 | 340 | 0.0 | 0.0 | 0.00 | 0.00 | 0.00 | 88 | 1011.0 |
| 20260510134450 | 61 | 187 | 0.0 | 0.0 | 0.00 | 0.00 | 0.00 | 87 | 1011.3 |
| 20260510133946 | 59 | 324 | 0.0 | 0.0 | 0.00 | 0.00 | 0.00 | 90 | 1011.4 |
| 20260510133442 | 59 | 198 | 0.0 | 0.0 | 0.00 | 0.00 | 0.00 | 91 | 1011.4 |
| 20260510132938 | 58 | 166 | 0.0 | 0.0 | 0.00 | 0.00 | 0.00 | 94 | 1011.5 |
| 20260510132435 | 57 | 350 | 0.0 | 0.0 | 0.00 | 0.00 | 0.00 | 99 | 1011.4 |
| 20260510131932 | 57 | 355 | 0.0 | 0.0 | 0.00 | 0.00 | 0.00 | 99 | 1011.5 |
| 20260510131430 | 56 | 341 | 0.0 | 0.0 | 0.00 | 0.00 | 0.00 | 99 | 1011.3 |
| 20260510130926 | 55 | 313 | 0.0 | 0.0 | 0.00 | 0.00 | 0.00 | 99 | 1011.2 |
| 20260510130423 | 55 | 331 | 0.0 | 0.0 | 0.00 | 0.00 | 0.00 | 99 | 1011.3 |
| 20260510125921 | 54 | 269 | 0.0 | 0.0 | 0.00 | 0.00 | 0.00 | 99 | 1011.3 |
| 20260510125416 | 54 | 286 | 0.0 | 0.9 | 0.00 | 0.00 | 0.00 | 99 | 1011.5 |
| 20260510124914 | 55 | 355 | 0.0 | 0.0 | 0.00 | 0.00 | 0.00 | 99 | 1011.1 |
| 20260510124410 | 54 | 346 | 0.0 | 0.0 | 0.00 | 0.00 | 0.00 | 99 | 1011.2 |
| 20260510123906 | 53 | 348 | 0.0 | 0.0 | 0.00 | 0.00 | 0.00 | 99 | 1011.1 |
| 20260510123402 | 53 | 340 | 0.0 | 0.0 | 0.00 | 0.00 | 0.00 | 99 | 1010.8 |
| 20260510122858 | 53 | 349 | 0.0 | 0.0 | 0.00 | 0.00 | 0.00 | 99 | 1010.9 |
| 20260510122354 | 53 | 349 | 0.0 | 0.0 | 0.00 | 0.00 | 0.00 | 99 | 1010.8 |
| 20260510121850 | 53 | 352 | 0.0 | 0.0 | 0.00 | 0.00 | 0.00 | 99 | 1011.0 |
| 20260510121348 | 52 | 354 | 0.0 | 0.0 | 0.00 | 0.00 | 0.00 | 99 | 1010.8 |
| 20260510120845 | 52 | 348 | 0.0 | 0.0 | 0.00 | 0.00 | 0.00 | 99 | 1010.8 |
| 20260510120343 | 52 | 355 | 0.0 | 0.0 | 0.00 | 0.00 | 0.00 | 99 | 1011.0 |
| 20260510115837 | 52 | 350 | 0.0 | 0.0 | 0.00 | 0.00 | 0.00 | 99 | 1011.1 |
| 20260510115335 | 52 | 342 | 0.0 | 0.0 | 0.00 | 0.00 | 0.00 | 99 | 1011.0 |
| 20260510114831 | 52 | 353 | 0.0 | 0.0 | 0.00 | 0.00 | 0.00 | 99 | 1010.7 |
| 20260510114328 | 52 | 353 | 0.0 | 0.0 | 0.00 | 0.00 | 0.00 | 99 | 1010.6 |
| 20260510113828 | 52 | 353 | 0.0 | 0.0 | 0.00 | 0.00 | 0.00 | 99 | 1010.7 |
| 20260510113325 | 52 | 353 | 0.0 | 0.0 | 0.00 | 0.00 | 0.00 | 99 | 1010.7 |
| 20260510112822 | 52 | 0 | 0.0 | 0.0 | 0.00 | 0.00 | 0.00 | 99 | 1010.7 |
| 20260510112319 | 52 | 356 | 0.0 | 0.0 | 0.00 | 0.00 | 0.00 | 99 | 1010.6 |
| 20260510111815 | 51 | 354 | 0.0 | 0.0 | 0.00 | 0.00 | 0.00 | 99 | 1010.5 |
| 20260510111311 | 51 | 354 | 0.0 | 0.0 | 0.00 | 0.00 | 0.00 | 99 | 1010.5 |
| 20260510110811 | 51 | 354 | 0.0 | 0.0 | 0.00 | 0.00 | 0.00 | 99 | 1010.3 |
| 20260510110309 | 51 | 354 | 0.0 | 0.0 | 0.00 | 0.00 | 0.00 | 99 | 1010.2 |
| 20260510105804 | 51 | 355 | 0.0 | 0.0 | 0.00 | 0.00 | 0.00 | 99 | 1010.2 |
| 20260510105259 | 51 | 356 | 0.0 | 0.0 | 0.00 | 0.00 | 0.00 | 99 | 1010.2 |
| 20260510104756 | 51 | 357 | 0.0 | 0.0 | 0.00 | 0.00 | 0.00 | 99 | 1010.0 |
| 20260510104253 | 50 | 0 | 0.0 | 0.0 | 0.00 | 0.00 | 0.00 | 99 | 1010.1 |
| 20260510103749 | 50 | 356 | 0.0 | 0.0 | 0.00 | 0.00 | 0.00 | 99 | 1010.0 |
| 20260510103246 | 50 | 356 | 0.0 | 0.0 | 0.00 | 0.00 | 0.00 | 99 | 1010.2 |
| 20260510102746 | 50 | 44 | 0.0 | 0.0 | 0.00 | 0.00 | 0.00 | 99 | 1010.3 |
| 20260510102242 | 50 | 355 | 0.0 | 0.0 | 0.00 | 0.00 | 0.00 | 99 | 1010.2 |
| 20260510101740 | 51 | 359 | 0.0 | 0.0 | 0.00 | 0.00 | 0.00 | 99 | 1010.3 |
| 20260510101238 | 51 | 8 | 0.0 | 0.0 | 0.00 | 0.00 | 0.00 | 99 | 1009.8 |
| 20260510100733 | 50 | 35 | 0.0 | 0.0 | 0.00 | 0.00 | 0.00 | 99 | 1009.7 |
| 20260510100232 | 50 | 349 | 0.0 | 0.0 | 0.00 | 0.00 | 0.00 | 99 | 1010.0 |
| 20260510095727 | 50 | 348 | 0.0 | 0.0 | 0.00 | 0.00 | 0.00 | 99 | 1009.9 |
| 20260510095222 | 50 | 350 | 0.0 | 0.0 | 0.00 | 0.00 | 0.00 | 99 | 1010.0 |
| 20260510094721 | 50 | 348 | 0.0 | 0.0 | 0.00 | 0.00 | 0.00 | 99 | 1009.9 |
| 20260510094217 | 50 | 352 | 0.0 | 0.0 | 0.00 | 0.00 | 0.00 | 99 | 1009.6 |
| 20260510093713 | 50 | 351 | 0.0 | 0.0 | 0.00 | 0.00 | 0.00 | 99 | 1009.7 |
| 20260510093210 | 50 | 350 | 0.0 | 0.0 | 0.00 | 0.00 | 0.00 | 99 | 1009.8 |
| 20260510092707 | 50 | 350 | 0.0 | 0.0 | 0.00 | 0.00 | 0.00 | 99 | 1009.6 |
| 20260510092202 | 50 | 31 | 0.0 | 0.0 | 0.00 | 0.00 | 0.00 | 99 | 1009.5 |
| 20260510091658 | 50 | 194 | 0.0 | 0.0 | 0.00 | 0.00 | 0.00 | 99 | 1009.5 |
| 20260510091154 | 50 | 98 | 0.0 | 0.0 | 0.00 | 0.00 | 0.00 | 99 | 1009.4 |
| 20260510090652 | 50 | 17 | 0.0 | 0.0 | 0.00 | 0.00 | 0.00 | 99 | 1009.4 |
| 20260510090148 | 49 | 105 | 0.0 | 0.0 | 0.00 | 0.00 | 0.00 | 99 | 1009.6 |
| 20260510085643 | 49 | 57 | 0.0 | 0.0 | 0.00 | 0.00 | 0.00 | 99 | 1009.5 |
| 20260510085138 | 49 | 68 | 0.0 | 0.0 | 0.00 | 0.00 | 0.00 | 99 | 1009.6 |
| 20260510084635 | 49 | 69 | 0.0 | 0.0 | 0.00 | 0.00 | 0.00 | 99 | 1009.7 |
| 20260510084132 | 49 | 103 | 0.0 | 0.0 | 0.00 | 0.00 | 0.00 | 99 | 1009.7 |
| 20260510083628 | 49 | 55 | 0.0 | 0.0 | 0.00 | 0.00 | 0.00 | 99 | 1009.8 |
| 20260510083125 | 49 | 94 | 0.0 | 0.0 | 0.00 | 0.00 | 0.00 | 99 | 1009.6 |
| 20260510082621 | 49 | 89 | 0.0 | 0.0 | 0.00 | 0.00 | 0.00 | 99 | 1009.6 |
| 20260510082117 | 49 | 2 | 0.0 | 0.0 | 0.00 | 0.00 | 0.00 | 99 | 1010.1 |
| 20260510081612 | 49 | 4 | 0.0 | 0.0 | 0.00 | 0.00 | 0.00 | 99 | 1010.1 |
| 20260510081108 | 49 | 1 | 0.0 | 0.0 | 0.00 | 0.00 | 0.00 | 99 | 1010.2 |
| 20260510080602 | 50 | 6 | 0.0 | 0.0 | 0.00 | 0.00 | 0.00 | 99 | 1010.3 |
| 20260510080059 | 50 | 79 | 0.0 | 0.0 | 0.00 | 0.00 | 0.00 | 99 | 1010.1 |
| 20260510075556 | 50 | 32 | 0.0 | 0.0 | 0.00 | 0.00 | 0.00 | 99 | 1010.2 |
| 20260510075053 | 50 | 15 | 0.0 | 0.0 | 0.00 | 0.00 | 0.00 | 99 | 1010.2 |
| 20260510074550 | 50 | 6 | 0.0 | 0.0 | 0.00 | 0.00 | 0.00 | 99 | 1010.4 |
| 20260510074045 | 49 | 5 | 0.0 | 0.0 | 0.00 | 0.00 | 0.00 | 99 | 1010.5 |
| 20260510073542 | 49 | 11 | 0.0 | 0.0 | 0.00 | 0.00 | 0.00 | 99 | 1010.6 |
| 20260510073039 | 49 | 13 | 0.0 | 0.0 | 0.00 | 0.00 | 0.00 | 99 | 1010.5 |
| 20260510072536 | 49 | 359 | 0.0 | 0.0 | 0.00 | 0.00 | 0.00 | 99 | 1010.5 |
| 20260510072031 | 48 | 339 | 0.0 | 0.0 | 0.00 | 0.00 | 0.00 | 99 | 1010.6 |
| 20260510071527 | 48 | 339 | 0.0 | 0.0 | 0.00 | 0.00 | 0.00 | 99 | 1010.5 |
| 20260510071026 | 48 | 348 | 0.0 | 0.0 | 0.00 | 0.00 | 0.00 | 99 | 1010.4 |
| 20260510070522 | 48 | 347 | 0.0 | 0.0 | 0.00 | 0.00 | 0.00 | 99 | 1010.2 |
| 20260510070019 | 48 | 340 | 0.0 | 0.0 | 0.00 | 0.00 | 0.00 | 99 | 1010.4 |
| 20260510065515 | 48 | 43 | 0.0 | 0.0 | 0.00 | 0.00 | 0.00 | 99 | 1010.0 |
| 20260510065011 | 48 | 43 | 0.0 | 0.0 | 0.00 | 0.00 | 0.00 | 99 | 1010.0 |
| 20260510064508 | 48 | 43 | 0.0 | 0.0 | 0.00 | 0.00 | 0.00 | 99 | 1009.8 |
| 20260510064005 | 47 | 43 | 0.0 | 0.0 | 0.00 | 0.00 | 0.00 | 99 | 1009.8 |
| 20260510063502 | 47 | 43 | 0.0 | 0.0 | 0.00 | 0.00 | 0.00 | 99 | 1009.9 |
| 20260510062959 | 47 | 43 | 0.0 | 0.0 | 0.00 | 0.00 | 0.00 | 99 | 1010.1 |
| 20260510062455 | 48 | 43 | 0.0 | 0.0 | 0.00 | 0.00 | 0.00 | 99 | 1009.9 |
| 20260510061949 | 46 | 43 | 0.0 | 0.0 | 0.00 | 0.00 | 0.00 | 99 | 1009.9 |
| 20260510061447 | 46 | 43 | 0.0 | 0.0 | 0.00 | 0.00 | 0.00 | 99 | 1010.0 |
| 20260510060943 | 46 | 43 | 0.0 | 0.0 | 0.00 | 0.00 | 0.00 | 99 | 1010.0 |
| 20260510060440 | 46 | 44 | 0.0 | 0.0 | 0.00 | 0.00 | 0.00 | 99 | 1010.0 |
| 20260510055936 | 46 | 44 | 0.0 | 0.0 | 0.00 | 0.00 | 0.00 | 99 | 1010.1 |
| 20260510055432 | 45 | 45 | 0.0 | 0.0 | 0.00 | 0.00 | 0.00 | 99 | 1010.1 |
| 20260510054930 | 46 | 45 | 0.0 | 0.0 | 0.00 | 0.00 | 0.00 | 99 | 1010.0 |
| 20260510054425 | 46 | 45 | 0.0 | 0.0 | 0.00 | 0.00 | 0.00 | 99 | 1010.0 |
| 20260510053921 | 46 | 45 | 0.0 | 0.0 | 0.00 | 0.00 | 0.00 | 99 | 1009.6 |
| 20260510053416 | 46 | 46 | 0.0 | 0.0 | 0.00 | 0.00 | 0.00 | 99 | 1009.7 |
| 20260510052913 | 46 | 46 | 0.0 | 0.0 | 0.00 | 0.00 | 0.00 | 99 | 1009.7 |
| 20260510052409 | 46 | 46 | 0.0 | 0.0 | 0.00 | 0.00 | 0.00 | 99 | 1009.5 |
| 20260510051905 | 46 | 46 | 0.0 | 0.0 | 0.00 | 0.00 | 0.00 | 99 | 1009.6 |
| 20260510051402 | 46 | 46 | 0.0 | 0.0 | 0.00 | 0.00 | 0.00 | 99 | 1009.8 |
| 20260510050858 | 47 | 46 | 0.0 | 0.0 | 0.00 | 0.00 | 0.00 | 99 | 1009.7 |
| 20260510050355 | 47 | 47 | 0.0 | 0.0 | 0.00 | 0.00 | 0.00 | 99 | 1009.7 |
| 20260510045852 | 46 | 80 | 0.0 | 0.0 | 0.00 | 0.00 | 0.00 | 99 | 1009.9 |
| 20260510045348 | 46 | 80 | 0.0 | 0.0 | 0.00 | 0.00 | 0.00 | 99 | 1009.5 |
| 20260510044846 | 47 | 80 | 0.0 | 0.0 | 0.00 | 0.00 | 0.00 | 99 | 1009.5 |
| 20260510043306 | 47 | 80 | 0.0 | 0.0 | 0.00 | 0.00 | 0.00 | 99 | 1009.7 |
| 20260510042804 | 47 | 80 | 0.0 | 0.0 | 0.00 | 0.00 | 0.00 | 99 | 1009.7 |
| 20260510042300 | 48 | 80 | 0.0 | 0.0 | 0.00 | 0.00 | 0.00 | 99 | 1009.6 |
| 20260510041756 | 48 | 81 | 0.0 | 0.0 | 0.00 | 0.00 | 0.00 | 99 | 1009.7 |
| 20260510041254 | 48 | 81 | 0.0 | 0.0 | 0.00 | 0.00 | 0.00 | 99 | 1009.5 |
| 20260510040751 | 48 | 81 | 0.0 | 0.0 | 0.00 | 0.00 | 0.00 | 99 | 1009.5 |
| 20260510040248 | 48 | 81 | 0.0 | 0.0 | 0.00 | 0.00 | 0.00 | 99 | 1009.8 |
| 20260510035743 | 48 | 81 | 0.0 | 0.0 | 0.00 | 0.25 | 0.25 | 99 | 1009.6 |
| 20260510035239 | 48 | 81 | 0.0 | 0.0 | 0.00 | 0.25 | 0.25 | 99 | 1009.5 |
| 20260510034735 | 48 | 81 | 0.0 | 0.0 | 0.00 | 0.25 | 0.25 | 99 | 1009.5 |
| 20260510034233 | 48 | 81 | 0.0 | 0.0 | 0.00 | 0.25 | 0.25 | 99 | 1009.7 |
| 20260510033729 | 49 | 81 | 0.0 | 0.0 | 0.00 | 0.25 | 0.25 | 99 | 1009.6 |
| 20260510033227 | 49 | 81 | 0.0 | 0.0 | 0.00 | 0.25 | 0.25 | 99 | 1009.5 |
| 20260510032723 | 50 | 81 | 0.0 | 0.0 | 0.00 | 0.25 | 0.25 | 99 | 1009.5 |
| 20260510032218 | 50 | 81 | 0.0 | 0.0 | 0.00 | 0.25 | 0.25 | 99 | 1009.6 |
| 20260510031714 | 50 | 81 | 0.0 | 0.0 | 0.00 | 0.25 | 0.25 | 99 | 1009.4 |
| 20260510031210 | 50 | 81 | 0.0 | 0.0 | 0.00 | 0.25 | 0.25 | 99 | 1009.5 |
| 20260510030709 | 50 | 81 | 0.0 | 0.0 | 0.00 | 0.25 | 0.25 | 99 | 1009.7 |
| 20260510030208 | 50 | 81 | 0.0 | 0.0 | 0.00 | 0.25 | 0.25 | 99 | 1009.9 |
| 20260510025705 | 50 | 81 | 0.0 | 0.0 | 0.00 | 0.25 | 0.25 | 99 | 1009.9 |
| 20260510025202 | 50 | 82 | 0.0 | 0.0 | 0.00 | 0.25 | 0.25 | 99 | 1009.8 |
| 20260510024659 | 50 | 82 | 0.0 | 0.0 | 0.00 | 0.25 | 0.25 | 99 | 1009.9 |
| 20260510024155 | 51 | 83 | 0.0 | 0.0 | 0.00 | 0.25 | 0.25 | 99 | 1009.8 |
| 20260510023651 | 51 | 85 | 0.0 | 0.0 | 0.00 | 0.25 | 0.25 | 99 | 1009.6 |
| 20260510023148 | 51 | 87 | 0.0 | 0.0 | 0.00 | 0.25 | 0.25 | 99 | 1009.6 |
| 20260510022643 | 51 | 88 | 0.0 | 0.0 | 0.00 | 0.25 | 0.25 | 99 | 1009.6 |
| 20260510022138 | 50 | 98 | 0.0 | 0.0 | 0.00 | 0.25 | 0.25 | 99 | 1009.6 |
| 20260510021634 | 50 | 85 | 0.0 | 0.0 | 0.00 | 0.25 | 0.25 | 99 | 1009.8 |
| 20260510021131 | 50 | 85 | 0.0 | 0.0 | 0.00 | 0.25 | 0.25 | 99 | 1009.5 |
| 20260510020626 | 50 | 85 | 0.0 | 0.0 | 0.00 | 0.25 | 0.25 | 99 | 1009.6 |
| 20260510020121 | 50 | 85 | 0.0 | 0.0 | 0.00 | 0.25 | 0.25 | 99 | 1009.4 |
| 20260510015618 | 51 | 85 | 0.0 | 0.0 | 0.00 | 0.25 | 0.25 | 99 | 1009.7 |
| 20260510015114 | 50 | 86 | 0.0 | 0.0 | 0.00 | 0.25 | 0.25 | 99 | 1009.5 |
| 20260510014609 | 50 | 85 | 0.0 | 0.0 | 0.00 | 0.25 | 0.25 | 99 | 1009.6 |
| 20260510014108 | 50 | 85 | 0.0 | 0.0 | 0.00 | 0.25 | 0.25 | 99 | 1009.6 |
| 20260510013602 | 50 | 85 | 0.0 | 0.0 | 0.00 | 0.25 | 0.25 | 99 | 1009.5 |
| 20260510013058 | 50 | 86 | 0.0 | 0.0 | 0.00 | 0.25 | 0.25 | 99 | 1009.4 |
| 20260510012557 | 51 | 87 | 0.0 | 0.0 | 0.00 | 0.25 | 0.25 | 99 | 1009.4 |
| 20260510012054 | 51 | 87 | 0.0 | 0.0 | 0.00 | 0.25 | 0.25 | 99 | 1009.1 |
| 20260510011553 | 51 | 95 | 0.0 | 0.0 | 0.00 | 0.25 | 0.25 | 99 | 1009.1 |
| 20260510011050 | 51 | 88 | 0.0 | 0.0 | 0.00 | 0.25 | 0.25 | 99 | 1009.2 |
| 20260510010546 | 51 | 88 | 0.0 | 0.0 | 0.00 | 0.25 | 0.25 | 99 | 1009.3 |
| 20260510010044 | 51 | 88 | 0.0 | 0.0 | 0.00 | 0.25 | 0.25 | 99 | 1008.9 |
| 20260510005539 | 51 | 88 | 0.0 | 0.0 | 0.00 | 0.25 | 0.25 | 99 | 1009.2 |
| 20260510005037 | 51 | 88 | 0.0 | 0.0 | 0.00 | 0.25 | 0.25 | 99 | 1009.1 |
| 20260510004534 | 51 | 88 | 0.0 | 0.0 | 0.00 | 0.25 | 0.25 | 99 | 1008.8 |
| 20260510004032 | 51 | 88 | 0.0 | 0.0 | 0.00 | 0.25 | 0.25 | 99 | 1009.0 |
| 20260510003528 | 51 | 88 | 0.0 | 0.0 | 0.00 | 0.25 | 0.25 | 99 | 1008.8 |
| 20260510003024 | 52 | 88 | 0.0 | 0.0 | 0.00 | 0.25 | 0.25 | 99 | 1008.9 |
| 20260510002514 | 52 | 88 | 0.0 | 0.0 | 0.00 | 0.25 | 0.25 | 99 | 1008.7 |
| 20260510002011 | 52 | 88 | 0.0 | 0.0 | 0.00 | 0.25 | 0.25 | 99 | 1008.7 |
| 20260510001509 | 52 | 88 | 0.0 | 0.0 | 0.00 | 0.25 | 0.25 | 99 | 1008.6 |
| 20260510001006 | 53 | 89 | 0.0 | 0.0 | 0.00 | 0.25 | 0.25 | 99 | 1008.5 |
| 20260510000501 | 53 | 33 | 0.0 | 0.0 | 0.00 | 0.25 | 0.25 | 99 | 1008.2 |
| 20260509235958 | 53 | 23 | 0.0 | 0.0 | 0.00 | 0.25 | 0.25 | 99 | 1008.4 |
| 20260509235455 | 53 | 27 | 0.0 | 0.0 | 0.00 | 0.25 | 0.25 | 99 | 1008.3 |
| 20260509234951 | 53 | 82 | 0.0 | 0.0 | 0.00 | 0.25 | 0.25 | 99 | 1008.3 |
| 20260509234448 | 53 | 22 | 0.0 | 0.0 | 0.00 | 0.25 | 0.25 | 99 | 1008.3 |
| 20260509233946 | 54 | 30 | 0.0 | 0.0 | 0.00 | 0.25 | 0.25 | 99 | 1008.5 |
| 20260509233443 | 54 | 12 | 0.0 | 0.0 | 0.00 | 0.25 | 0.25 | 99 | 1008.4 |
| 20260509232939 | 54 | 20 | 0.0 | 0.0 | 0.00 | 0.25 | 0.25 | 99 | 1008.3 |
| 20260509232437 | 54 | 26 | 0.0 | 0.0 | 0.00 | 0.25 | 0.25 | 99 | 1008.4 |
| 20260509231933 | 54 | 9 | 0.0 | 0.0 | 0.00 | 0.25 | 0.25 | 99 | 1008.5 |
| 20260509231430 | 54 | 4 | 0.0 | 0.0 | 0.00 | 0.25 | 0.25 | 99 | 1008.6 |
| 20260509230928 | 54 | 6 | 0.0 | 0.0 | 0.00 | 0.25 | 0.25 | 99 | 1008.4 |
| 20260509230424 | 54 | 13 | 0.0 | 0.0 | 0.00 | 0.25 | 0.25 | 99 | 1008.2 |
| 20260509225920 | 54 | 38 | 0.0 | 0.0 | 0.00 | 0.25 | 0.25 | 99 | 1008.4 |
| 20260509225412 | 54 | 215 | 0.0 | 0.0 | 0.00 | 0.25 | 0.25 | 99 | 1008.3 |
| 20260509224908 | 54 | 55 | 0.0 | 0.0 | 0.00 | 0.25 | 0.25 | 99 | 1008.2 |
| 20260509224403 | 54 | 200 | 0.0 | 0.0 | 0.00 | 0.25 | 0.25 | 99 | 1008.3 |
| 20260509223900 | 54 | 102 | 0.0 | 0.0 | 0.00 | 0.25 | 0.25 | 99 | 1008.2 |
| 20260509223357 | 54 | 151 | 0.0 | 0.0 | 0.00 | 0.25 | 0.25 | 99 | 1008.3 |
| 20260509222854 | 54 | 63 | 0.0 | 0.0 | 0.00 | 0.25 | 0.25 | 99 | 1008.2 |
| 20260509222354 | 54 | 75 | 0.0 | 0.0 | 0.00 | 0.25 | 0.25 | 99 | 1008.3 |
| 20260509221850 | 54 | 62 | 0.0 | 0.0 | 0.00 | 0.25 | 0.25 | 99 | 1008.4 |
| 20260509221348 | 55 | 54 | 0.0 | 0.0 | 0.00 | 0.25 | 0.25 | 99 | 1008.4 |
| 20260509220843 | 54 | 93 | 0.0 | 0.0 | 0.00 | 0.25 | 0.25 | 99 | 1008.5 |
| 20260509220339 | 54 | 21 | 0.0 | 0.0 | 0.00 | 0.25 | 0.25 | 99 | 1008.8 |
| 20260509215835 | 54 | 152 | 0.0 | 0.0 | 0.00 | 0.25 | 0.25 | 99 | 1008.9 |
| 20260509215332 | 54 | 157 | 0.0 | 0.0 | 0.00 | 0.25 | 0.25 | 99 | 1008.8 |
| 20260509214829 | 54 | 135 | 0.0 | 0.0 | 0.00 | 0.25 | 0.25 | 99 | 1008.9 |
| 20260509214326 | 54 | 53 | 0.0 | 0.0 | 0.00 | 0.25 | 0.25 | 99 | 1008.8 |
| 20260509213823 | 54 | 35 | 0.0 | 0.0 | 0.00 | 0.25 | 0.25 | 99 | 1008.8 |
| 20260509213318 | 54 | 72 | 0.0 | 0.0 | 0.00 | 0.25 | 0.25 | 99 | 1008.8 |
| 20260509212816 | 54 | 40 | 0.0 | 0.0 | 0.00 | 0.25 | 0.25 | 99 | 1008.9 |
| 20260509212314 | 54 | 21 | 0.0 | 0.0 | 0.07 | 0.25 | 0.25 | 99 | 1008.9 |
| 20260509211809 | 54 | 84 | 0.0 | 0.0 | 0.07 | 0.25 | 0.25 | 99 | 1009.2 |
| 20260509211305 | 54 | 62 | 0.0 | 0.0 | 0.07 | 0.24 | 0.24 | 99 | 1009.0 |
| 20260509210802 | 54 | 70 | 0.0 | 0.0 | 0.12 | 0.24 | 0.24 | 99 | 1009.1 |
| 20260509210300 | 54 | 27 | 0.0 | 0.0 | 0.12 | 0.23 | 0.23 | 99 | 1008.9 |
| 20260509205759 | 54 | 16 | 0.0 | 0.0 | 0.12 | 0.22 | 0.22 | 99 | 1009.0 |
| 20260509205254 | 54 | 16 | 0.0 | 0.0 | 0.12 | 0.21 | 0.21 | 99 | 1009.3 |
| 20260509204750 | 54 | 44 | 0.0 | 0.0 | 0.12 | 0.20 | 0.20 | 99 | 1009.4 |
| 20260509204247 | 54 | 14 | 0.0 | 0.0 | 0.05 | 0.19 | 0.19 | 99 | 1009.3 |
| 20260509203743 | 54 | 1 | 0.0 | 0.0 | 0.00 | 0.18 | 0.18 | 99 | 1009.3 |